sensor_id;sensor_type;location;lat;lon;timestamp;pressure;altitude;pressure_sealevel;temperature;humidity
18900;BME280;9582;52.018;6.306;2023-07-13T00:01:36;102881.31;;;15.00;100.00
18900;BME280;9582;52.018;6.306;2023-07-13T00:04:04;102898.03;;;14.99;100.00
18900;BME280;9582;52.018;6.306;2023-07-13T00:06:31;102908.56;;;14.99;100.00
18900;BME280;9582;52.018;6.306;2023-07-13T00:08:58;102912.13;;;14.98;100.00
18900;BME280;9582;52.018;6.306;2023-07-13T00:11:24;102921.72;;;14.99;100.00
18900;BME280;9582;52.018;6.306;2023-07-13T00:13:51;102920.03;;;14.98;100.00
18900;BME280;9582;52.018;6.306;2023-07-13T00:16:18;102921.88;;;14.95;100.00
18900;BME280;9582;52.018;6.306;2023-07-13T00:18:47;102930.69;;;14.94;100.00
18900;BME280;9582;52.018;6.306;2023-07-13T00:21:14;102929.81;;;14.93;100.00
18900;BME280;9582;52.018;6.306;2023-07-13T00:23:42;102934.25;;;14.93;100.00
18900;BME280;9582;52.018;6.306;2023-07-13T00:26:10;102943.06;;;14.90;100.00
18900;BME280;9582;52.018;6.306;2023-07-13T00:28:38;102938.91;;;14.83;100.00
18900;BME280;9582;52.018;6.306;2023-07-13T00:31:08;102932.75;;;14.83;100.00
18900;BME280;9582;52.018;6.306;2023-07-13T00:33:35;102932.03;;;14.78;100.00
18900;BME280;9582;52.018;6.306;2023-07-13T00:36:04;102936.50;;;14.76;100.00
18900;BME280;9582;52.018;6.306;2023-07-13T00:38:30;102933.88;;;14.76;100.00
18900;BME280;9582;52.018;6.306;2023-07-13T00:40:58;102937.41;;;14.73;100.00
18900;BME280;9582;52.018;6.306;2023-07-13T00:43:26;102932.22;;;14.72;100.00
18900;BME280;9582;52.018;6.306;2023-07-13T00:46:22;102934.94;;;14.69;100.00
18900;BME280;9582;52.018;6.306;2023-07-13T00:48:50;102936.78;;;14.65;100.00
18900;BME280;9582;52.018;6.306;2023-07-13T00:51:23;102931.56;;;14.64;100.00
18900;BME280;9582;52.018;6.306;2023-07-13T00:53:53;102935.97;;;14.63;100.00
18900;BME280;9582;52.018;6.306;2023-07-13T00:56:21;102937.72;;;14.64;100.00
18900;BME280;9582;52.018;6.306;2023-07-13T00:58:49;102935.97;;;14.63;100.00
18900;BME280;9582;52.018;6.306;2023-07-13T01:01:17;102945.63;;;14.63;100.00
18900;BME280;9582;52.018;6.306;2023-07-13T01:03:44;102935.09;;;14.63;100.00
18900;BME280;9582;52.018;6.306;2023-07-13T01:06:13;102932.44;;;14.64;100.00
18900;BME280;9582;52.018;6.306;2023-07-13T01:08:41;102934.22;;;14.64;100.00
18900;BME280;9582;52.018;6.306;2023-07-13T01:11:07;102933.34;;;14.63;100.00
18900;BME280;9582;52.018;6.306;2023-07-13T01:13:34;102935.16;;;14.61;100.00
18900;BME280;9582;52.018;6.306;2023-07-13T01:16:05;102929.97;;;14.58;100.00
18900;BME280;9582;52.018;6.306;2023-07-13T01:18:33;102923.91;;;14.56;100.00
18900;BME280;9582;52.018;6.306;2023-07-13T01:21:04;102929.16;;;14.56;100.00
18900;BME280;9582;52.018;6.306;2023-07-13T01:23:32;102937.06;;;14.56;100.00
18900;BME280;9582;52.018;6.306;2023-07-13T01:25:59;102941.53;;;14.53;100.00
18900;BME280;9582;52.018;6.306;2023-07-13T01:28:27;102944.25;;;14.50;100.00
18900;BME280;9582;52.018;6.306;2023-07-13T01:30:55;102945.22;;;14.47;100.00
18900;BME280;9582;52.018;6.306;2023-07-13T01:33:23;102941.72;;;14.45;100.00
18900;BME280;9582;52.018;6.306;2023-07-13T01:35:50;102947.06;;;14.43;100.00
18900;BME280;9582;52.018;6.306;2023-07-13T01:38:20;102952.31;;;14.43;100.00
18900;BME280;9582;52.018;6.306;2023-07-13T01:40:48;102950.63;;;14.41;100.00
18900;BME280;9582;52.018;6.306;2023-07-13T01:43:15;102940.19;;;14.38;100.00
18900;BME280;9582;52.018;6.306;2023-07-13T01:45:41;102949.91;;;14.36;100.00
18900;BME280;9582;52.018;6.306;2023-07-13T01:48:09;102940.25;;;14.35;100.00
18900;BME280;9582;52.018;6.306;2023-07-13T01:50:36;102932.38;;;14.35;100.00
18900;BME280;9582;52.018;6.306;2023-07-13T01:53:04;102937.63;;;14.35;100.00
18900;BME280;9582;52.018;6.306;2023-07-13T01:55:33;102935.06;;;14.32;100.00
18900;BME280;9582;52.018;6.306;2023-07-13T01:58:01;102930.78;;;14.28;100.00
18900;BME280;9582;52.018;6.306;2023-07-13T02:00:28;102930.88;;;14.25;100.00
18900;BME280;9582;52.018;6.306;2023-07-13T02:02:55;102923.03;;;14.22;100.00
18900;BME280;9582;52.018;6.306;2023-07-13T02:05:22;102923.91;;;14.22;100.00
18900;BME280;9582;52.018;6.306;2023-07-13T02:07:49;102921.31;;;14.21;100.00
18900;BME280;9582;52.018;6.306;2023-07-13T02:10:16;102933.56;;;14.22;100.00
18900;BME280;9582;52.018;6.306;2023-07-13T02:12:44;102937.91;;;14.23;100.00
18900;BME280;9582;52.018;6.306;2023-07-13T02:15:11;102936.16;;;14.23;100.00
18900;BME280;9582;52.018;6.306;2023-07-13T02:17:38;102932.66;;;14.23;100.00
18900;BME280;9582;52.018;6.306;2023-07-13T02:20:06;102931.75;;;14.24;100.00
18900;BME280;9582;52.018;6.306;2023-07-13T02:22:33;102925.63;;;14.23;100.00
18900;BME280;9582;52.018;6.306;2023-07-13T02:25:00;102935.19;;;14.27;100.00
18900;BME280;9582;52.018;6.306;2023-07-13T02:27:27;102939.44;;;14.31;100.00
18900;BME280;9582;52.018;6.306;2023-07-13T02:29:55;102941.13;;;14.35;100.00
18900;BME280;9582;52.018;6.306;2023-07-13T02:32:22;102941.13;;;14.35;100.00
18900;BME280;9582;52.018;6.306;2023-07-13T02:34:51;102934.09;;;14.36;100.00
18900;BME280;9582;52.018;6.306;2023-07-13T02:37:18;102929.78;;;14.33;100.00
18900;BME280;9582;52.018;6.306;2023-07-13T02:39:45;102924.56;;;14.32;100.00
18900;BME280;9582;52.018;6.306;2023-07-13T02:42:13;102930.66;;;14.31;100.00
18900;BME280;9582;52.018;6.306;2023-07-13T02:44:39;102921.09;;;14.28;100.00
18900;BME280;9582;52.018;6.306;2023-07-13T02:47:08;102912.44;;;14.25;100.00
18900;BME280;9582;52.018;6.306;2023-07-13T02:49:34;102915.09;;;14.23;100.00
18900;BME280;9582;52.018;6.306;2023-07-13T02:52:02;102917.78;;;14.22;100.00
18900;BME280;9582;52.018;6.306;2023-07-13T02:54:29;102919.56;;;14.20;100.00
18900;BME280;9582;52.018;6.306;2023-07-13T02:56:55;102916.19;;;14.16;100.00
18900;BME280;9582;52.018;6.306;2023-07-13T02:59:22;102907.50;;;14.13;100.00
18900;BME280;9582;52.018;6.306;2023-07-13T03:01:49;102916.25;;;14.13;100.00
18900;BME280;9582;52.018;6.306;2023-07-13T03:04:17;102916.28;;;14.12;100.00
18900;BME280;9582;52.018;6.306;2023-07-13T03:06:45;102924.22;;;14.10;100.00
18900;BME280;9582;52.018;6.306;2023-07-13T03:09:12;102924.31;;;14.07;100.00
18900;BME280;9582;52.018;6.306;2023-07-13T03:11:42;102931.41;;;14.04;100.00
18900;BME280;9582;52.018;6.306;2023-07-13T03:14:23;102937.66;;;14.00;100.00
18900;BME280;9582;52.018;6.306;2023-07-13T03:16:50;102941.22;;;13.97;100.00
18900;BME280;9582;52.018;6.306;2023-07-13T03:19:19;102944.78;;;13.95;100.00
18900;BME280;9582;52.018;6.306;2023-07-13T03:21:49;102947.47;;;13.92;100.00
18900;BME280;9582;52.018;6.306;2023-07-13T03:24:18;102953.66;;;13.91;100.00
18900;BME280;9582;52.018;6.306;2023-07-13T03:26:45;102964.19;;;13.91;100.00
18900;BME280;9582;52.018;6.306;2023-07-13T03:29:12;102978.22;;;13.89;100.00
18900;BME280;9582;52.018;6.306;2023-07-13T03:31:39;103002.78;;;13.90;100.00
18900;BME280;9582;52.018;6.306;2023-07-13T03:34:06;103014.09;;;13.94;100.00
18900;BME280;9582;52.018;6.306;2023-07-13T03:36:35;103036.00;;;13.94;100.00
18900;BME280;9582;52.018;6.306;2023-07-13T03:39:05;103033.38;;;13.94;100.00
18900;BME280;9582;52.018;6.306;2023-07-13T03:41:40;103047.41;;;13.93;100.00
18900;BME280;9582;52.018;6.306;2023-07-13T03:44:07;103058.84;;;13.92;100.00
18900;BME280;9582;52.018;6.306;2023-07-13T03:46:33;103067.59;;;13.93;100.00
18900;BME280;9582;52.018;6.306;2023-07-13T03:49:01;103086.06;;;13.89;100.00
18900;BME280;9582;52.018;6.306;2023-07-13T03:51:28;103099.22;;;13.89;100.00
18900;BME280;9582;52.018;6.306;2023-07-13T03:53:56;103112.38;;;13.89;100.00
18900;BME280;9582;52.018;6.306;2023-07-13T03:56:23;103118.63;;;13.85;100.00
18900;BME280;9582;52.018;6.306;2023-07-13T03:58:50;103130.84;;;13.86;100.00
18900;BME280;9582;52.018;6.306;2023-07-13T04:01:20;103135.22;;;13.87;100.00
18900;BME280;9582;52.018;6.306;2023-07-13T04:03:47;103148.31;;;13.91;100.00
18900;BME280;9582;52.018;6.306;2023-07-13T04:06:16;103162.28;;;13.93;100.00
18900;BME280;9582;52.018;6.306;2023-07-13T04:08:47;103171.00;;;13.95;100.00
18900;BME280;9582;52.018;6.306;2023-07-13T04:11:17;103192.91;;;13.95;100.00
18900;BME280;9582;52.018;6.306;2023-07-13T04:13:43;103203.38;;;13.98;100.00
18900;BME280;9582;52.018;6.306;2023-07-13T04:16:11;103212.94;;;14.02;100.00
18900;BME280;9582;52.018;6.306;2023-07-13T04:18:37;103223.38;;;14.07;100.00
18900;BME280;9582;52.018;6.306;2023-07-13T04:21:04;103237.34;;;14.10;100.00
18900;BME280;9582;52.018;6.306;2023-07-13T04:23:31;103239.91;;;14.13;100.00
18900;BME280;9582;52.018;6.306;2023-07-13T04:25:57;103238.91;;;14.17;100.00
18900;BME280;9582;52.018;6.306;2023-07-13T04:28:26;103251.09;;;14.23;100.00
18900;BME280;9582;52.018;6.306;2023-07-13T04:30:53;103258.03;;;14.25;100.00
18900;BME280;9582;52.018;6.306;2023-07-13T04:33:20;103252.75;;;14.27;100.00
18900;BME280;9582;52.018;6.306;2023-07-13T04:35:48;103259.72;;;14.29;100.00
18900;BME280;9582;52.018;6.306;2023-07-13T04:38:15;103265.81;;;14.33;100.00
18900;BME280;9582;52.018;6.306;2023-07-13T04:40:42;103265.72;;;14.37;100.00
18900;BME280;9582;52.018;6.306;2023-07-13T04:43:09;103277.88;;;14.43;100.00
18900;BME280;9582;52.018;6.306;2023-07-13T04:45:37;103287.47;;;14.47;100.00
18900;BME280;9582;52.018;6.306;2023-07-13T04:48:04;103290.84;;;14.52;100.00
18900;BME280;9582;52.018;6.306;2023-07-13T04:50:31;103294.25;;;14.57;100.00
18900;BME280;9582;52.018;6.306;2023-07-13T04:52:58;103293.34;;;14.58;100.00
18900;BME280;9582;52.018;6.306;2023-07-13T04:55:24;103308.09;;;14.65;100.00
18900;BME280;9582;52.018;6.306;2023-07-13T04:57:54;103311.47;;;14.72;100.00
18900;BME280;9582;52.018;6.306;2023-07-13T05:00:21;103318.38;;;14.77;100.00
18900;BME280;9582;52.018;6.306;2023-07-13T05:02:49;103320.88;;;14.83;100.00
18900;BME280;9582;52.018;6.306;2023-07-13T05:05:16;103327.72;;;14.90;100.00
18900;BME280;9582;52.018;6.306;2023-07-13T05:07:43;103318.03;;;14.92;100.00
18900;BME280;9582;52.018;6.306;2023-07-13T05:10:09;103323.78;;;15.10;100.00
18900;BME280;9582;52.018;6.306;2023-07-13T05:12:36;103333.09;;;15.23;100.00
18900;BME280;9582;52.018;6.306;2023-07-13T05:15:04;103348.63;;;15.35;100.00
18900;BME280;9582;52.018;6.306;2023-07-13T05:17:30;103338.69;;;15.46;100.00
18900;BME280;9582;52.018;6.306;2023-07-13T05:19:59;103341.13;;;15.55;100.00
18900;BME280;9582;52.018;6.306;2023-07-13T05:22:25;103338.16;;;15.67;100.00
18900;BME280;9582;52.018;6.306;2023-07-13T05:24:52;103327.44;;;15.73;100.00
18900;BME280;9582;52.018;6.306;2023-07-13T05:27:18;103308.75;;;15.81;100.00
18900;BME280;9582;52.018;6.306;2023-07-13T05:29:45;103297.09;;;15.89;100.00
18900;BME280;9582;52.018;6.306;2023-07-13T05:32:12;103283.56;;;16.01;100.00
18900;BME280;9582;52.018;6.306;2023-07-13T05:34:38;103282.09;;;16.22;100.00
18900;BME280;9582;52.018;6.306;2023-07-13T05:37:07;103271.34;;;16.28;100.00
18900;BME280;9582;52.018;6.306;2023-07-13T05:39:34;103245.53;;;16.38;100.00
18900;BME280;9582;52.018;6.306;2023-07-13T05:42:01;103223.25;;;16.46;100.00
18900;BME280;9582;52.018;6.306;2023-07-13T05:44:28;103206.88;;;16.64;100.00
18900;BME280;9582;52.018;6.306;2023-07-13T05:46:54;103192.53;;;16.71;100.00
18900;BME280;9582;52.018;6.306;2023-07-13T05:49:22;103174.00;;;16.73;100.00
18900;BME280;9582;52.018;6.306;2023-07-13T05:51:49;103140.81;;;16.64;100.00
18900;BME280;9582;52.018;6.306;2023-07-13T05:54:17;103143.81;;;16.52;100.00
18900;BME280;9582;52.018;6.306;2023-07-13T05:56:43;103124.63;;;16.47;100.00
18900;BME280;9582;52.018;6.306;2023-07-13T05:59:10;103117.69;;;16.43;100.00
18900;BME280;9582;52.018;6.306;2023-07-13T06:01:37;103120.25;;;16.46;100.00
18900;BME280;9582;52.018;6.306;2023-07-13T06:04:04;103122.00;;;16.46;100.00
18900;BME280;9582;52.018;6.306;2023-07-13T06:06:31;103116.72;;;16.46;100.00
18900;BME280;9582;52.018;6.306;2023-07-13T06:08:57;103115.06;;;16.43;100.00
18900;BME280;9582;52.018;6.306;2023-07-13T06:11:27;103116.63;;;16.49;100.00
18900;BME280;9582;52.018;6.306;2023-07-13T06:13:55;103126.06;;;16.57;100.00
18900;BME280;9582;52.018;6.306;2023-07-13T06:16:22;103134.75;;;16.61;100.00
18900;BME280;9582;52.018;6.306;2023-07-13T06:18:49;103143.09;;;16.75;100.00
18900;BME280;9582;52.018;6.306;2023-07-13T06:21:18;103150.63;;;16.87;100.00
18900;BME280;9582;52.018;6.306;2023-07-13T06:23:46;103144.34;;;16.90;100.00
18900;BME280;9582;52.018;6.306;2023-07-13T06:26:14;103168.19;;;16.88;100.00
18900;BME280;9582;52.018;6.306;2023-07-13T06:28:42;103161.88;;;16.92;100.00
18900;BME280;9582;52.018;6.306;2023-07-13T06:31:11;103158.94;;;17.01;100.00
18900;BME280;9582;52.018;6.306;2023-07-13T06:33:38;103161.19;;;17.12;100.00
18900;BME280;9582;52.018;6.306;2023-07-13T06:36:06;103151.63;;;17.08;100.00
18900;BME280;9582;52.018;6.306;2023-07-13T06:38:34;103142.72;;;17.10;100.00
18900;BME280;9582;52.018;6.306;2023-07-13T06:41:01;103151.50;;;17.12;100.00
18900;BME280;9582;52.018;6.306;2023-07-13T06:43:28;103159.34;;;17.14;100.00
18900;BME280;9582;52.018;6.306;2023-07-13T06:45:58;103169.34;;;17.30;100.00
18900;BME280;9582;52.018;6.306;2023-07-13T06:48:25;103153.81;;;17.45;100.00
18900;BME280;9582;52.018;6.306;2023-07-13T06:50:51;103153.81;;;17.45;100.00
18900;BME280;9582;52.018;6.306;2023-07-13T06:53:18;103146.72;;;17.47;100.00
18900;BME280;9582;52.018;6.306;2023-07-13T06:55:45;103146.06;;;17.65;100.00
18900;BME280;9582;52.018;6.306;2023-07-13T06:58:15;103143.81;;;17.77;100.00
18900;BME280;9582;52.018;6.306;2023-07-13T07:00:42;103149.16;;;17.99;100.00
18900;BME280;9582;52.018;6.306;2023-07-13T07:03:10;103144.97;;;18.15;100.00
18900;BME280;9582;52.018;6.306;2023-07-13T07:05:37;103136.66;;;18.24;100.00
18900;BME280;9582;52.018;6.306;2023-07-13T07:08:04;103148.56;;;18.36;100.00
18900;BME280;9582;52.018;6.306;2023-07-13T07:10:31;103128.41;;;18.32;100.00
18900;BME280;9582;52.018;6.306;2023-07-13T07:12:58;103119.91;;;18.24;100.00
18900;BME280;9582;52.018;6.306;2023-07-13T07:15:25;103123.91;;;18.12;100.00
18900;BME280;9582;52.018;6.306;2023-07-13T07:17:52;103112.53;;;18.10;100.00
18900;BME280;9582;52.018;6.306;2023-07-13T07:20:21;103107.91;;;17.94;100.00
18900;BME280;9582;52.018;6.306;2023-07-13T07:22:47;103099.41;;;17.85;100.00
18900;BME280;9582;52.018;6.306;2023-07-13T07:25:14;103097.72;;;17.83;100.00
18900;BME280;9582;52.018;6.306;2023-07-13T07:27:41;103099.63;;;17.79;100.00
18900;BME280;9582;52.018;6.306;2023-07-13T07:30:08;103103.44;;;17.72;100.00
18900;BME280;9582;52.018;6.306;2023-07-13T07:32:35;103110.41;;;17.75;100.00
18900;BME280;9582;52.018;6.306;2023-07-13T07:35:03;103110.34;;;17.76;100.00
18900;BME280;9582;52.018;6.306;2023-07-13T07:37:31;103109.41;;;17.77;100.00
18900;BME280;9582;52.018;6.306;2023-07-13T07:39:58;103109.34;;;17.79;100.00
18900;BME280;9582;52.018;6.306;2023-07-13T07:42:24;103117.06;;;17.85;100.00
18900;BME280;9582;52.018;6.306;2023-07-13T07:44:51;103116.94;;;17.88;100.00
18900;BME280;9582;52.018;6.306;2023-07-13T07:47:17;103122.75;;;17.98;100.00
18900;BME280;9582;52.018;6.306;2023-07-13T07:49:44;103126.94;;;18.03;100.00
18900;BME280;9582;52.018;6.306;2023-07-13T07:52:11;103124.84;;;18.11;100.00
18900;BME280;9582;52.018;6.306;2023-07-13T07:54:39;103130.63;;;18.21;100.00
18900;BME280;9582;52.018;6.306;2023-07-13T07:57:06;103126.19;;;18.21;100.00
18900;BME280;9582;52.018;6.306;2023-07-13T07:59:33;103121.53;;;18.28;100.00
18900;BME280;9582;52.018;6.306;2023-07-13T08:02:00;103121.94;;;18.39;100.00
18900;BME280;9582;52.018;6.306;2023-07-13T08:04:28;103124.25;;;18.48;100.00
18900;BME280;9582;52.018;6.306;2023-07-13T08:06:54;103114.53;;;18.49;100.00
18900;BME280;9582;52.018;6.306;2023-07-13T08:09:21;103099.41;;;18.51;100.00
18900;BME280;9582;52.018;6.306;2023-07-13T08:11:49;103081.44;;;18.57;100.00
18900;BME280;9582;52.018;6.306;2023-07-13T08:14:17;103079.63;;;18.59;100.00
18900;BME280;9582;52.018;6.306;2023-07-13T08:16:44;103081.72;;;18.71;100.00
18900;BME280;9582;52.018;6.306;2023-07-13T08:19:11;103082.28;;;18.79;100.00
18900;BME280;9582;52.018;6.306;2023-07-13T08:21:37;103082.47;;;18.95;100.00
18900;BME280;9582;52.018;6.306;2023-07-13T08:24:04;103078.63;;;19.02;100.00
18900;BME280;9582;52.018;6.306;2023-07-13T08:26:31;103074.16;;;19.02;100.00
18900;BME280;9582;52.018;6.306;2023-07-13T08:28:59;103064.63;;;18.98;100.00
18900;BME280;9582;52.018;6.306;2023-07-13T08:31:27;103057.69;;;18.96;100.00
18900;BME280;9582;52.018;6.306;2023-07-13T08:33:54;103068.44;;;19.12;100.00
18900;BME280;9582;52.018;6.306;2023-07-13T08:36:20;103073.59;;;19.35;100.00
18900;BME280;9582;52.018;6.306;2023-07-13T08:38:47;103079.72;;;19.55;100.00
18900;BME280;9582;52.018;6.306;2023-07-13T08:41:15;103080.16;;;19.65;100.00
18900;BME280;9582;52.018;6.306;2023-07-13T08:43:46;103088.09;;;20.02;100.00
18900;BME280;9582;52.018;6.306;2023-07-13T08:46:18;103077.94;;;20.10;100.00
18900;BME280;9582;52.018;6.306;2023-07-13T08:48:51;103073.72;;;20.06;100.00
18900;BME280;9582;52.018;6.306;2023-07-13T08:51:26;103075.38;;;20.09;100.00
18900;BME280;9582;52.018;6.306;2023-07-13T08:53:58;103092.56;;;20.19;100.00
18900;BME280;9582;52.018;6.306;2023-07-13T08:56:29;103069.59;;;20.01;100.00
18900;BME280;9582;52.018;6.306;2023-07-13T08:58:58;103060.69;;;19.83;100.00
18900;BME280;9582;52.018;6.306;2023-07-13T09:01:31;103061.47;;;19.85;100.00
18900;BME280;9582;52.018;6.306;2023-07-13T09:04:05;103100.13;;;20.28;100.00
18900;BME280;9582;52.018;6.306;2023-07-13T09:06:42;103129.06;;;21.03;100.00
18900;BME280;9582;52.018;6.306;2023-07-13T09:09:20;103138.41;;;21.11;100.00
18900;BME280;9582;52.018;6.306;2023-07-13T09:11:56;103151.03;;;21.41;100.00
18900;BME280;9582;52.018;6.306;2023-07-13T09:14:41;103165.09;;;22.08;100.00
18900;BME280;9582;52.018;6.306;2023-07-13T09:17:14;103208.94;;;22.95;100.00
18900;BME280;9582;52.018;6.306;2023-07-13T09:19:43;103197.94;;;22.71;100.00
18900;BME280;9582;52.018;6.306;2023-07-13T09:22:17;103171.66;;;22.18;100.00
18900;BME280;9582;52.018;6.306;2023-07-13T09:24:52;103165.91;;;21.77;100.00
18900;BME280;9582;52.018;6.306;2023-07-13T09:27:22;103167.75;;;21.60;100.00
18900;BME280;9582;52.018;6.306;2023-07-13T09:29:56;103174.88;;;21.26;100.00
18900;BME280;9582;52.018;6.306;2023-07-13T09:32:25;103163.59;;;21.04;100.00
18900;BME280;9582;52.018;6.306;2023-07-13T09:34:52;103158.97;;;20.73;100.00
18900;BME280;9582;52.018;6.306;2023-07-13T09:37:21;103153.22;;;20.47;100.00
18900;BME280;9582;52.018;6.306;2023-07-13T09:39:49;103133.28;;;20.20;100.00
18900;BME280;9582;52.018;6.306;2023-07-13T09:42:19;103136.91;;;20.00;100.00
18900;BME280;9582;52.018;6.306;2023-07-13T09:44:54;103143.88;;;19.84;100.00
18900;BME280;9582;52.018;6.306;2023-07-13T09:47:23;103146.53;;;19.84;100.00
18900;BME280;9582;52.018;6.306;2023-07-13T09:49:59;103173.28;;;20.35;100.00
18900;BME280;9582;52.018;6.306;2023-07-13T09:52:27;103209.22;;;21.31;100.00
18900;BME280;9582;52.018;6.306;2023-07-13T09:54:54;103201.31;;;21.47;100.00
18900;BME280;9582;52.018;6.306;2023-07-13T09:57:26;103163.31;;;21.27;100.00
18900;BME280;9582;52.018;6.306;2023-07-13T09:59:55;103177.59;;;21.75;100.00
18900;BME280;9582;52.018;6.306;2023-07-13T10:02:26;103213.03;;;22.55;100.00
18900;BME280;9582;52.018;6.306;2023-07-13T10:05:02;103186.72;;;22.80;100.00
18900;BME280;9582;52.018;6.306;2023-07-13T10:07:30;103147.88;;;22.45;100.00
18900;BME280;9582;52.018;6.306;2023-07-13T10:09:58;103116.13;;;21.95;100.00
18900;BME280;9582;52.018;6.306;2023-07-13T10:12:28;103093.63;;;21.52;100.00
18900;BME280;9582;52.018;6.306;2023-07-13T10:14:58;103098.13;;;21.19;100.00
18900;BME280;9582;52.018;6.306;2023-07-13T10:17:29;103112.50;;;20.81;100.00
18900;BME280;9582;52.018;6.306;2023-07-13T10:20:01;103144.84;;;20.18;100.00
18900;BME280;9582;52.018;6.306;2023-07-13T10:22:36;103141.91;;;19.30;100.00
18900;BME280;9582;52.018;6.306;2023-07-13T10:25:14;103136.09;;;18.81;100.00
18900;BME280;9582;52.018;6.306;2023-07-13T10:27:42;103144.69;;;18.66;100.00
18900;BME280;9582;52.018;6.306;2023-07-13T10:30:13;103151.13;;;18.81;100.00
18900;BME280;9582;52.018;6.306;2023-07-13T10:32:41;103140.00;;;18.93;100.00
18900;BME280;9582;52.018;6.306;2023-07-13T10:35:12;103149.81;;;19.11;100.00
18900;BME280;9582;52.018;6.306;2023-07-13T10:37:43;103149.28;;;19.23;100.00
18900;BME280;9582;52.018;6.306;2023-07-13T10:40:14;103147.78;;;19.36;100.00
18900;BME280;9582;52.018;6.306;2023-07-13T10:42:45;103134.47;;;19.38;100.00
18900;BME280;9582;52.018;6.306;2023-07-13T10:45:14;103140.34;;;19.65;100.00
18900;BME280;9582;52.018;6.306;2023-07-13T10:47:43;103148.31;;;19.83;100.00
18900;BME280;9582;52.018;6.306;2023-07-13T10:50:17;103174.72;;;20.24;100.00
18900;BME280;9582;52.018;6.306;2023-07-13T10:52:46;103182.03;;;20.56;100.00
18900;BME280;9582;52.018;6.306;2023-07-13T10:55:35;103182.19;;;20.70;100.00
18900;BME280;9582;52.018;6.306;2023-07-13T10:58:03;103179.31;;;20.92;100.00
18900;BME280;9582;52.018;6.306;2023-07-13T11:00:46;103178.25;;;21.13;100.00
18900;BME280;9582;52.018;6.306;2023-07-13T11:03:16;103187.41;;;21.24;100.00
18900;BME280;9582;52.018;6.306;2023-07-13T11:05:48;103174.56;;;21.33;100.00
18900;BME280;9582;52.018;6.306;2023-07-13T11:08:19;103187.53;;;21.39;100.00
18900;BME280;9582;52.018;6.306;2023-07-13T11:10:52;103176.75;;;21.42;100.00
18900;BME280;9582;52.018;6.306;2023-07-13T11:13:56;103177.13;;;21.34;100.00
18900;BME280;9582;52.018;6.306;2023-07-13T11:16:35;103181.06;;;21.27;100.00
18900;BME280;9582;52.018;6.306;2023-07-13T11:22:22;103217.59;;;21.73;100.00
18900;BME280;9582;52.018;6.306;2023-07-13T11:25:00;103206.25;;;21.37;100.00
18900;BME280;9582;52.018;6.306;2023-07-13T11:27:40;103199.59;;;20.77;100.00
18900;BME280;9582;52.018;6.306;2023-07-13T11:30:31;103192.47;;;20.42;100.00
18900;BME280;9582;52.018;6.306;2023-07-13T11:33:11;103222.81;;;20.73;100.00
18900;BME280;9582;52.018;6.306;2023-07-13T11:35:45;103224.31;;;20.96;100.00
18900;BME280;9582;52.018;6.306;2023-07-13T11:38:17;103231.38;;;21.32;100.00
18900;BME280;9582;52.018;6.306;2023-07-13T11:40:46;103272.59;;;21.74;100.00
18900;BME280;9582;52.018;6.306;2023-07-13T11:43:14;103248.03;;;21.69;100.00
18900;BME280;9582;52.018;6.306;2023-07-13T11:45:42;103238.56;;;21.64;100.00
18900;BME280;9582;52.018;6.306;2023-07-13T11:48:29;103236.94;;;21.94;100.00
18900;BME280;9582;52.018;6.306;2023-07-13T11:51:00;103259.00;;;22.29;100.00
18900;BME280;9582;52.018;6.306;2023-07-13T11:53:36;103272.34;;;22.60;100.00
18900;BME280;9582;52.018;6.306;2023-07-13T11:56:05;103283.44;;;22.84;100.00
18900;BME280;9582;52.018;6.306;2023-07-13T11:58:32;103241.38;;;22.26;100.00
18900;BME280;9582;52.018;6.306;2023-07-13T12:01:01;103209.44;;;21.61;100.00
18900;BME280;9582;52.018;6.306;2023-07-13T12:03:32;103192.13;;;20.84;100.00
18900;BME280;9582;52.018;6.306;2023-07-13T12:06:02;103193.28;;;20.25;100.00
18900;BME280;9582;52.018;6.306;2023-07-13T12:08:38;103195.47;;;19.78;100.00
18900;BME280;9582;52.018;6.306;2023-07-13T12:11:13;103190.53;;;19.50;100.00
18900;BME280;9582;52.018;6.306;2023-07-13T12:13:41;103193.09;;;19.32;100.00
18900;BME280;9582;52.018;6.306;2023-07-13T12:16:12;103191.97;;;19.17;100.00
18900;BME280;9582;52.018;6.306;2023-07-13T12:18:42;103178.53;;;19.01;100.00
18900;BME280;9582;52.018;6.306;2023-07-13T12:21:13;103179.38;;;19.22;100.00
18900;BME280;9582;52.018;6.306;2023-07-13T12:23:43;103192.38;;;19.69;100.00
18900;BME280;9582;52.018;6.306;2023-07-13T12:26:11;103209.63;;;20.16;100.00
18900;BME280;9582;52.018;6.306;2023-07-13T12:28:44;103226.97;;;20.60;100.00
18900;BME280;9582;52.018;6.306;2023-07-13T12:31:24;103226.00;;;20.80;100.00
18900;BME280;9582;52.018;6.306;2023-07-13T12:33:56;103216.06;;;20.66;100.00
18900;BME280;9582;52.018;6.306;2023-07-13T12:36:23;103207.06;;;20.69;100.00
18900;BME280;9582;52.018;6.306;2023-07-13T12:38:53;103200.56;;;20.74;100.00
18900;BME280;9582;52.018;6.306;2023-07-13T12:41:20;103206.41;;;20.83;100.00
18900;BME280;9582;52.018;6.306;2023-07-13T12:43:48;103193.56;;;20.73;100.00
18900;BME280;9582;52.018;6.306;2023-07-13T12:46:18;103185.41;;;20.59;100.00
18900;BME280;9582;52.018;6.306;2023-07-13T12:48:48;103180.97;;;20.41;100.00
18900;BME280;9582;52.018;6.306;2023-07-13T12:51:16;103172.84;;;20.44;100.00
18900;BME280;9582;52.018;6.306;2023-07-13T12:53:48;103200.19;;;20.65;100.00
18900;BME280;9582;52.018;6.306;2023-07-13T12:56:20;103215.94;;;20.87;100.00
18900;BME280;9582;52.018;6.306;2023-07-13T12:58:48;103230.38;;;21.17;100.00
18900;BME280;9582;52.018;6.306;2023-07-13T13:01:21;103233.31;;;21.45;100.00
18900;BME280;9582;52.018;6.306;2023-07-13T13:03:50;103234.56;;;21.55;100.00